Time;durP1;ratioP1;P1;durP2;ratioP2;P2;SDS_P1;SDS_P2;PMS_P1;PMS_P2;Temp;Humidity;BMP_temperature;BMP_pressure;BME280_temperature;BME280_humidity;BME280_pressure;Samples;Min_cycle;Max_cycle;Signal;HPM_P1;HPM_P2
2023/07/03 00:00:06;;;;;;;5.45;3.30;;;14.50;99.90;;;;;;4992434;28;20030;-71
2023/07/03 00:02:34;;;;;;;8.55;4.43;;;14.60;99.90;;;;;;4992709;28;20039;-71
2023/07/03 00:05:03;;;;;;;6.65;4.03;;;14.50;99.90;;;;;;4974046;28;20073;-71
2023/07/03 00:07:29;;;;;;;9.43;4.03;;;14.60;99.90;;;;;;4992666;28;20069;-71
2023/07/03 00:09:54;;;;;;;7.47;3.72;;;14.60;99.90;;;;;;4979549;28;20022;-71
2023/07/03 00:12:20;;;;;;;9.07;4.68;;;14.50;99.90;;;;;;5011033;28;20029;-72
2023/07/03 00:14:48;;;;;;;6.45;2.85;;;14.50;99.90;;;;;;4996458;28;20390;-71
2023/07/03 00:17:13;;;;;;;18.75;5.47;;;14.50;99.90;;;;;;5007184;28;20401;-70
2023/07/03 00:19:39;;;;;;;9.73;3.58;;;14.40;99.90;;;;;;5007778;28;20019;-70
2023/07/03 00:22:05;;;;;;;11.60;4.68;;;14.30;99.90;;;;;;5007296;28;20465;-73
2023/07/03 00:24:32;;;;;;;4.97;3.45;;;14.30;99.90;;;;;;5005778;28;20030;-71
2023/07/03 00:26:59;;;;;;;10.35;4.20;;;14.30;99.90;;;;;;4991999;28;20027;-71
2023/07/03 00:29:28;;;;;;;13.15;4.35;;;14.30;99.90;;;;;;5007467;28;20034;-71
2023/07/03 00:31:54;;;;;;;6.50;3.83;;;14.40;99.90;;;;;;4976742;28;20121;-72
2023/07/03 00:34:20;;;;;;;9.40;3.58;;;14.50;99.90;;;;;;4989058;28;20125;-72
2023/07/03 00:36:47;;;;;;;9.57;4.10;;;14.50;99.90;;;;;;5009547;28;20037;-72
2023/07/03 00:39:14;;;;;;;11.88;4.57;;;14.60;99.90;;;;;;5010556;28;20029;-71
2023/07/03 00:41:41;;;;;;;9.90;3.28;;;14.60;99.90;;;;;;5010313;28;20480;-72
2023/07/03 00:44:14;;;;;;;7.47;4.13;;;15.00;99.90;;;;;;5001815;28;20022;-71
2023/07/03 00:46:41;;;;;;;20.65;3.33;;;14.60;99.90;;;;;;4974636;28;20448;-73
2023/07/03 00:49:09;;;;;;;13.75;4.90;;;14.60;99.90;;;;;;4996482;28;20068;-71
2023/07/03 00:51:37;;;;;;;10.63;3.83;;;14.70;99.90;;;;;;4970743;28;20068;-72
2023/07/03 00:54:05;;;;;;;16.20;5.50;;;14.60;99.90;;;;;;5005523;28;20040;-71
2023/07/03 00:56:31;;;;;;;9.48;4.47;;;14.70;99.90;;;;;;5005384;28;20041;-71
2023/07/03 00:58:57;;;;;;;14.05;4.90;;;14.70;99.90;;;;;;4977913;28;20026;-72
2023/07/03 01:01:43;;;;;;;8.98;4.70;;;14.60;99.90;;;;;;5020904;28;20125;-71
2023/07/03 01:04:18;;;;;;;12.98;3.78;;;14.50;99.90;;;;;;4973880;28;20034;-71
2023/07/03 01:06:56;;;;;;;14.43;5.45;;;14.50;99.90;;;;;;4991929;28;20085;-73
2023/07/03 01:09:27;;;;;;;15.02;4.28;;;14.50;99.90;;;;;;4974728;28;20054;-72
2023/07/03 01:11:54;;;;;;;12.10;4.90;;;14.60;99.90;;;;;;4974747;28;20084;-71
2023/07/03 01:14:22;;;;;;;18.02;5.63;;;14.60;99.90;;;;;;4989080;28;20065;-71
2023/07/03 01:16:50;;;;;;;12.60;3.70;;;14.60;99.90;;;;;;4986611;28;20038;-73
2023/07/03 01:19:29;;;;;;;9.20;4.72;;;14.60;99.90;;;;;;4958599;28;20042;-74
2023/07/03 01:22:10;;;;;;;22.80;4.57;;;14.60;99.90;;;;;;4990888;28;20033;-71
2023/07/03 01:24:40;;;;;;;18.70;5.45;;;14.50;99.90;;;;;;5005654;28;20113;-70
2023/07/03 01:27:10;;;;;;;12.52;4.55;;;14.50;99.90;;;;;;4990972;28;20037;-70
2023/07/03 01:29:37;;;;;;;12.00;4.13;;;14.50;99.90;;;;;;5006687;28;20038;-73
2023/07/03 01:32:05;;;;;;;13.82;4.88;;;14.50;99.90;;;;;;4990068;28;20023;-70
2023/07/03 01:34:32;;;;;;;17.05;4.82;;;14.50;99.90;;;;;;5005284;28;20050;-72
2023/07/03 01:37:00;;;;;;;17.50;4.93;;;14.40;99.90;;;;;;5007140;28;20073;-71
2023/07/03 01:39:26;;;;;;;8.52;3.67;;;14.30;99.90;;;;;;5006708;28;20023;-72
2023/07/03 01:41:54;;;;;;;12.10;4.68;;;14.30;99.90;;;;;;4991906;28;20105;-71
2023/07/03 01:44:21;;;;;;;18.75;4.63;;;14.50;99.90;;;;;;4988041;28;20030;-73
2023/07/03 01:46:46;;;;;;;16.35;4.40;;;14.20;99.90;;;;;;4985317;28;20095;-72
2023/07/03 01:49:14;;;;;;;14.48;4.90;;;14.30;99.90;;;;;;4990671;28;20034;-71
2023/07/03 01:51:58;;;;;;;8.27;3.50;;;14.30;99.90;;;;;;4990000;28;20169;-73
2023/07/03 01:54:31;;;;;;;19.85;4.80;;;14.30;99.90;;;;;;5004852;28;20038;-71
2023/07/03 01:57:00;;;;;;;14.88;4.80;;;14.30;99.90;;;;;;5006490;28;20034;-72
2023/07/03 01:59:29;;;;;;;11.07;4.50;;;14.30;99.90;;;;;;5006752;28;20026;-71
2023/07/03 02:02:01;;;;;;;15.32;5.43;;;14.30;99.90;;;;;;4991846;28;20064;-71
2023/07/03 02:05:09;;;;;;;20.05;4.60;;;14.20;99.90;;;;;;4992505;28;20149;-71
2023/07/03 02:07:37;;;;;;;17.67;6.55;;;14.20;99.90;;;;;;4958064;28;20043;-71
2023/07/03 02:10:03;;;;;;;15.35;4.97;;;14.10;99.90;;;;;;4998857;28;20026;-72
2023/07/03 02:12:29;;;;;;;10.60;4.03;;;14.10;99.90;;;;;;4978622;28;20036;-71
2023/07/03 02:15:02;;;;;;;15.50;4.07;;;14.10;99.90;;;;;;4988118;28;20114;-72
2023/07/03 02:17:28;;;;;;;11.65;5.03;;;14.10;99.90;;;;;;4992494;28;20034;-71
2023/07/03 02:19:54;;;;;;;12.48;4.80;;;14.00;99.90;;;;;;4993609;28;20125;-72
2023/07/03 02:22:20;;;;;;;13.23;4.70;;;14.10;99.90;;;;;;4992895;28;20084;-71
2023/07/03 02:24:47;;;;;;;20.42;3.92;;;14.00;99.90;;;;;;4993544;28;20450;-71
2023/07/03 02:27:13;;;;;;;11.25;4.07;;;13.90;99.90;;;;;;4993572;28;20026;-72
2023/07/03 02:29:39;;;;;;;10.52;6.03;;;13.80;99.90;;;;;;4978073;28;20067;-71
2023/07/03 02:32:12;;;;;;;15.13;5.22;;;13.70;99.90;;;;;;4988224;28;20018;-72
2023/07/03 02:34:38;;;;;;;17.27;4.88;;;13.60;99.90;;;;;;4975277;28;20550;-72
2023/07/03 02:37:05;;;;;;;16.52;6.15;;;13.60;99.90;;;;;;4974513;28;20504;-71
2023/07/03 02:39:31;;;;;;;14.25;5.47;;;13.50;99.90;;;;;;5029430;28;20056;-71
2023/07/03 02:41:57;;;;;;;13.57;5.40;;;13.50;99.90;;;;;;5001887;28;20073;-71
2023/07/03 02:44:23;;;;;;;22.38;6.22;;;13.30;99.90;;;;;;4991712;28;20030;-73
2023/07/03 02:46:49;;;;;;;12.27;5.70;;;13.40;99.90;;;;;;5005949;28;20125;-72
2023/07/03 02:49:17;;;;;;;9.23;5.15;;;13.30;99.90;;;;;;4992020;28;20497;-72
2023/07/03 02:51:43;;;;;;;16.65;5.13;;;13.20;99.90;;;;;;4993054;28;20097;-71
2023/07/03 02:54:10;;;;;;;21.58;6.88;;;13.20;99.90;;;;;;4992987;28;20077;-71
2023/07/03 02:56:37;;;;;;;22.42;6.10;;;13.20;99.90;;;;;;4992580;28;20150;-72
2023/07/03 02:59:03;;;;;;;17.50;6.25;;;13.10;99.90;;;;;;4992932;28;20065;-71
2023/07/03 03:01:32;;;;;;;21.90;8.13;;;13.00;99.90;;;;;;4981953;28;20026;-71
2023/07/03 03:04:00;;;;;;;9.95;4.43;;;13.00;99.90;;;;;;5007367;28;20022;-70
2023/07/03 03:06:26;;;;;;;10.20;5.32;;;12.90;99.90;;;;;;5009196;28;20026;-71
2023/07/03 03:08:52;;;;;;;19.08;6.55;;;12.90;99.90;;;;;;5009106;28;20033;-71
2023/07/03 03:11:19;;;;;;;20.08;6.15;;;12.90;99.90;;;;;;4992585;28;20381;-71
2023/07/03 03:13:47;;;;;;;24.92;5.60;;;12.90;99.90;;;;;;4989854;28;20053;-71
2023/07/03 03:16:14;;;;;;;19.25;6.65;;;12.80;99.90;;;;;;5002851;28;20385;-71
2023/07/03 03:18:40;;;;;;;17.92;4.63;;;12.90;99.90;;;;;;4991801;28;20039;-73
2023/07/03 03:21:06;;;;;;;15.80;4.95;;;12.90;99.90;;;;;;4992689;28;20045;-72
2023/07/03 03:23:32;;;;;;;17.00;5.97;;;13.00;99.90;;;;;;4975108;28;20049;-71
2023/07/03 03:25:58;;;;;;;15.43;3.47;;;13.00;99.90;;;;;;4992612;28;20035;-71
2023/07/03 03:28:24;;;;;;;15.68;6.65;;;13.20;99.90;;;;;;5008675;28;20496;-73
2023/07/03 03:30:50;;;;;;;20.95;5.88;;;13.20;99.90;;;;;;5008132;28;20034;-72
2023/07/03 03:33:16;;;;;;;14.68;5.13;;;13.30;99.90;;;;;;4991630;28;20117;-71
2023/07/03 03:35:42;;;;;;;23.58;7.53;;;13.40;99.90;;;;;;4974214;28;20218;-71
2023/07/03 03:38:08;;;;;;;10.52;4.15;;;13.50;99.90;;;;;;4992154;28;20031;-71
2023/07/03 03:40:34;;;;;;;17.38;5.53;;;13.50;99.90;;;;;;5008443;28;20026;-72
2023/07/03 03:43:00;;;;;;;28.60;7.43;;;13.60;99.90;;;;;;4975835;28;20343;-71
2023/07/03 03:45:27;;;;;;;16.15;5.40;;;13.60;99.90;;;;;;4990196;28;20398;-71
2023/07/03 03:47:53;;;;;;;10.57;4.72;;;13.70;99.90;;;;;;4991387;28;20040;-72
2023/07/03 03:50:18;;;;;;;18.45;6.35;;;13.70;99.90;;;;;;4975532;28;20034;-71
2023/07/03 03:52:44;;;;;;;21.45;7.32;;;13.80;99.90;;;;;;4991874;28;20030;-72
2023/07/03 03:55:11;;;;;;;13.80;5.80;;;13.80;99.90;;;;;;4996237;28;20692;-72
2023/07/03 03:57:36;;;;;;;12.43;5.68;;;13.90;99.90;;;;;;4986187;28;20389;-72
2023/07/03 04:00:04;;;;;;;19.75;5.32;;;14.00;99.90;;;;;;4987708;28;20011;-73
2023/07/03 04:02:38;;;;;;;18.40;6.13;;;14.00;99.90;;;;;;4989172;28;20412;-71
2023/07/03 04:05:05;;;;;;;14.98;7.88;;;14.10;99.90;;;;;;4974028;28;20037;-72
2023/07/03 04:07:31;;;;;;;18.90;7.20;;;14.10;99.90;;;;;;4975438;28;20528;-72
2023/07/03 04:09:57;;;;;;;20.30;6.47;;;14.20;99.90;;;;;;4992589;28;20389;-71
2023/07/03 04:12:22;;;;;;;14.27;4.80;;;14.20;99.90;;;;;;4991377;28;20030;-72
2023/07/03 04:14:48;;;;;;;26.65;5.93;;;14.20;99.90;;;;;;5005479;28;20089;-72
2023/07/03 04:17:14;;;;;;;16.77;5.85;;;14.20;99.90;;;;;;4991020;28;20038;-71
2023/07/03 04:19:40;;;;;;;17.05;6.25;;;14.30;99.90;;;;;;4943327;28;20042;-72
2023/07/03 04:22:06;;;;;;;20.98;7.13;;;14.30;99.90;;;;;;4991731;28;20397;-71
2023/07/03 04:24:34;;;;;;;17.95;5.78;;;14.30;99.90;;;;;;4989218;28;20038;-71
2023/07/03 04:27:00;;;;;;;32.42;8.70;;;14.40;99.90;;;;;;4975182;28;20033;-72
2023/07/03 04:29:26;;;;;;;18.13;4.75;;;14.40;99.90;;;;;;4996882;28;20026;-71
2023/07/03 04:31:52;;;;;;;19.42;6.18;;;14.40;99.90;;;;;;4961563;28;20100;-70
2023/07/03 04:34:18;;;;;;;21.42;6.43;;;14.40;99.90;;;;;;4962722;28;20054;-72
2023/07/03 04:36:45;;;;;;;12.60;5.68;;;14.50;99.90;;;;;;4990960;28;20037;-72
2023/07/03 04:39:10;;;;;;;21.52;6.20;;;14.50;99.90;;;;;;4991900;28;20038;-73
2023/07/03 04:41:36;;;;;;;21.42;5.75;;;14.50;99.90;;;;;;4955942;28;20023;-72
2023/07/03 04:44:03;;;;;;;16.42;6.05;;;14.60;99.90;;;;;;4991560;28;20022;-71
2023/07/03 04:46:29;;;;;;;12.63;5.10;;;14.60;99.90;;;;;;4991474;28;20363;-72
2023/07/03 04:49:03;;;;;;;24.55;7.25;;;14.70;99.90;;;;;;5006925;28;20027;-72
2023/07/03 04:51:30;;;;;;;12.05;4.80;;;14.70;99.90;;;;;;5004902;28;20358;-71
2023/07/03 04:53:58;;;;;;;11.90;5.72;;;15.10;99.90;;;;;;5005451;28;20050;-72
2023/07/03 04:56:25;;;;;;;20.90;5.95;;;15.90;99.90;;;;;;5003814;28;20129;-72
2023/07/03 04:58:51;;;;;;;15.68;5.40;;;17.10;99.90;;;;;;4986611;28;20034;-74
2023/07/03 05:01:18;;;;;;;13.43;5.05;;;17.50;99.90;;;;;;4969921;28;20039;-73
2023/07/03 05:03:44;;;;;;;16.58;4.32;;;18.40;99.90;;;;;;4990269;28;20465;-72
2023/07/03 05:06:11;;;;;;;16.35;5.60;;;19.50;99.90;;;;;;4990357;28;20112;-73
2023/07/03 05:08:36;;;;;;;14.60;4.97;;;19.80;99.90;;;;;;4990051;28;20027;-70
2023/07/03 05:11:03;;;;;;;16.67;6.10;;;19.80;99.90;;;;;;4989489;28;20049;-70
2023/07/03 05:13:29;;;;;;;12.20;4.45;;;19.50;99.90;;;;;;4987300;28;20022;-71
2023/07/03 05:15:55;;;;;;;8.05;4.45;;;18.90;99.90;;;;;;4995109;28;20042;-70
2023/07/03 05:18:21;;;;;;;10.15;4.75;;;18.70;99.90;;;;;;4988488;28;20027;-71
2023/07/03 05:20:48;;;;;;;18.45;5.72;;;19.30;99.90;;;;;;4980883;28;20034;-72
2023/07/03 05:23:15;;;;;;;19.83;5.88;;;20.40;99.90;;;;;;4998705;28;20059;-71
2023/07/03 05:25:42;;;;;;;13.90;5.03;;;21.40;99.90;;;;;;4993931;28;20041;-72
2023/07/03 05:28:08;;;;;;;12.55;4.60;;;22.00;99.90;;;;;;4975160;28;20404;-74
2023/07/03 05:30:34;;;;;;;17.75;5.70;;;22.60;99.90;;;;;;4973387;28;20026;-72
2023/07/03 05:33:01;;;;;;;13.80;6.05;;;23.30;99.90;;;;;;4978072;28;20035;-73
2023/07/03 05:35:27;;;;;;;15.95;5.40;;;23.30;99.90;;;;;;4987233;28;20046;-72
2023/07/03 05:37:52;;;;;;;27.00;6.32;;;23.40;99.90;;;;;;4959318;28;20033;-72
2023/07/03 05:40:19;;;;;;;10.85;3.85;;;23.70;99.50;;;;;;4988650;28;20042;-72
2023/07/03 05:42:45;;;;;;;16.88;5.88;;;24.30;98.70;;;;;;4984710;28;20500;-73
2023/07/03 05:45:12;;;;;;;9.18;4.60;;;24.70;97.80;;;;;;5006503;28;20042;-73
2023/07/03 05:47:38;;;;;;;12.77;5.55;;;24.80;97.10;;;;;;4992856;28;20091;-73
2023/07/03 05:50:04;;;;;;;14.73;5.63;;;25.40;96.20;;;;;;4977067;28;20062;-72
2023/07/03 05:52:31;;;;;;;15.75;4.78;;;25.80;95.40;;;;;;4993222;28;20222;-73
2023/07/03 05:54:57;;;;;;;12.48;5.07;;;25.20;95.60;;;;;;4976356;28;20125;-71
2023/07/03 05:57:22;;;;;;;10.93;4.82;;;25.20;95.70;;;;;;4993598;28;20105;-71
2023/07/03 05:59:50;;;;;;;16.55;4.82;;;25.40;95.30;;;;;;4993905;28;20034;-71
2023/07/03 06:02:16;;;;;;;9.52;4.18;;;25.50;95.00;;;;;;4978335;28;20125;-71
2023/07/03 06:04:43;;;;;;;16.40;5.65;;;25.70;94.50;;;;;;4990946;28;20034;-71
2023/07/03 06:07:09;;;;;;;10.40;4.45;;;26.00;94.10;;;;;;4993434;28;20528;-70
2023/07/03 06:09:35;;;;;;;15.90;4.90;;;23.70;95.80;;;;;;4991864;28;20358;-71
2023/07/03 06:12:02;;;;;;;12.70;5.78;;;23.80;96.50;;;;;;4993233;28;20050;-72
2023/07/03 06:14:29;;;;;;;16.13;6.07;;;24.90;95.90;;;;;;4989187;28;20053;-71
2023/07/03 06:16:55;;;;;;;9.75;4.18;;;26.00;93.80;;;;;;4993167;28;20030;-72
2023/07/03 06:19:21;;;;;;;14.15;6.05;;;25.90;93.10;;;;;;4992918;28;20038;-69
2023/07/03 06:21:47;;;;;;;12.23;4.78;;;26.30;92.80;;;;;;4994372;28;20030;-70
2023/07/03 06:24:14;;;;;;;7.18;4.45;;;27.10;92.00;;;;;;5007590;28;20421;-70
2023/07/03 06:26:43;;;;;;;11.93;4.75;;;27.70;91.20;;;;;;5008884;28;20030;-72
2023/07/03 06:29:10;;;;;;;10.43;4.55;;;27.70;90.70;;;;;;4992948;28;20066;-73
2023/07/03 06:31:36;;;;;;;16.33;5.70;;;28.70;88.80;;;;;;4976715;28;20022;-71
2023/07/03 06:34:03;;;;;;;11.82;3.70;;;29.60;86.30;;;;;;5007942;28;20049;-72
2023/07/03 06:36:29;;;;;;;10.48;4.20;;;28.40;86.60;;;;;;4993017;28;20064;-72
2023/07/03 06:38:57;;;;;;;12.55;4.90;;;25.80;89.20;;;;;;4992916;28;20026;-71
2023/07/03 06:41:29;;;;;;;10.60;4.85;;;25.40;90.60;;;;;;4992632;28;20023;-70
2023/07/03 06:43:56;;;;;;;11.82;5.57;;;25.60;90.60;;;;;;5005631;28;20030;-70
2023/07/03 06:46:22;;;;;;;17.88;6.30;;;26.30;90.20;;;;;;4981987;28;20030;-72
2023/07/03 06:48:48;;;;;;;7.40;4.78;;;28.10;86.80;;;;;;4997801;28;20034;-72
2023/07/03 06:51:14;;;;;;;10.77;4.40;;;29.00;83.90;;;;;;5000279;28;20037;-71
2023/07/03 06:53:41;;;;;;;7.72;3.72;;;28.90;82.80;;;;;;5016158;28;20469;-73
2023/07/03 06:56:08;;;;;;;10.75;4.07;;;29.80;81.50;;;;;;4970836;28;20081;-70
2023/07/03 06:58:34;;;;;;;6.93;3.60;;;29.90;78.90;;;;;;4979915;28;20038;-71
2023/07/03 07:01:11;;;;;;;6.65;3.15;;;29.60;79.80;;;;;;4983519;28;20026;-72
2023/07/03 07:03:39;;;;;;;12.07;4.72;;;31.40;81.40;;;;;;4990485;28;20081;-70
2023/07/03 07:06:14;;;;;;;9.90;3.70;;;30.70;77.30;;;;;;4993747;28;20552;-70
2023/07/03 07:08:40;;;;;;;11.18;4.40;;;29.90;77.30;;;;;;4988167;28;20038;-74
2023/07/03 07:11:25;;;;;;;9.88;5.18;;;29.30;78.10;;;;;;4972634;28;20019;-72
2023/07/03 07:13:52;;;;;;;12.40;3.03;;;28.90;75.50;;;;;;4967530;28;20042;-70
2023/07/03 07:16:22;;;;;;;8.10;4.23;;;27.10;79.90;;;;;;5009305;28;20038;-70
2023/07/03 07:18:53;;;;;;;9.40;4.63;;;26.20;79.50;;;;;;4973812;28;20034;-70
2023/07/03 07:21:20;;;;;;;10.18;3.67;;;26.60;79.90;;;;;;4975936;28;20367;-76
2023/07/03 07:23:50;;;;;;;15.75;5.10;;;27.70;82.00;;;;;;5006173;28;20027;-71
2023/07/03 07:26:19;;;;;;;6.85;3.63;;;27.40;77.60;;;;;;4976216;28;20054;-75
2023/07/03 07:28:45;;;;;;;10.30;3.38;;;26.40;79.60;;;;;;4956216;28;20038;-71
2023/07/03 07:31:16;;;;;;;9.02;3.67;;;25.90;80.00;;;;;;4985482;28;20451;-71
2023/07/03 07:33:42;;;;;;;8.52;3.22;;;25.50;80.90;;;;;;4987618;28;20030;-70
2023/07/03 07:36:12;;;;;;;9.38;3.88;;;24.40;83.90;;;;;;4993068;28;20436;-69
2023/07/03 07:38:38;;;;;;;9.85;4.10;;;24.50;83.40;;;;;;4967259;28;20171;-71
2023/07/03 07:41:04;;;;;;;14.18;4.38;;;24.40;84.10;;;;;;5008538;28;20034;-70
2023/07/03 07:43:30;;;;;;;11.95;3.38;;;24.30;83.90;;;;;;4991384;28;20042;-70
2023/07/03 07:45:57;;;;;;;11.48;3.35;;;25.40;82.50;;;;;;4957692;28;20031;-70
2023/07/03 07:48:23;;;;;;;7.80;3.88;;;25.20;83.30;;;;;;4991033;28;20026;-69
2023/07/03 07:50:49;;;;;;;7.35;3.60;;;24.40;82.60;;;;;;4991919;28;20015;-70
2023/07/03 07:53:14;;;;;;;10.70;3.50;;;23.50;84.50;;;;;;4991633;28;20038;-70
2023/07/03 07:55:41;;;;;;;15.95;4.47;;;23.10;86.30;;;;;;4990155;28;20120;-72
2023/07/03 07:58:07;;;;;;;10.32;4.03;;;22.70;86.10;;;;;;4990611;28;20461;-70
2023/07/03 08:00:33;;;;;;;8.93;3.45;;;22.80;86.70;;;;;;5007213;28;20030;-71
2023/07/03 08:02:58;;;;;;;13.98;5.32;;;23.40;84.90;;;;;;4989586;28;20521;-70
2023/07/03 08:05:25;;;;;;;5.13;2.72;;;22.80;86.00;;;;;;4989863;28;20071;-71
2023/07/03 08:07:52;;;;;;;16.50;4.18;;;22.30;86.60;;;;;;5007369;28;20038;-71
2023/07/03 08:10:19;;;;;;;13.05;4.75;;;21.90;87.90;;;;;;5005235;28;20022;-71
2023/07/03 08:12:45;;;;;;;10.77;4.05;;;22.10;87.80;;;;;;4965976;28;20495;-70
2023/07/03 08:15:11;;;;;;;11.07;4.97;;;22.50;87.40;;;;;;4997467;28;20137;-70
2023/07/03 08:17:37;;;;;;;5.97;3.22;;;23.70;85.20;;;;;;4973659;28;20489;-70
2023/07/03 08:20:08;;;;;;;11.15;4.10;;;23.10;85.80;;;;;;4991420;28;20061;-69
2023/07/03 08:22:34;;;;;;;4.93;2.63;;;23.00;85.90;;;;;;4990743;28;20108;-70
2023/07/03 08:24:59;;;;;;;10.68;3.25;;;23.60;87.00;;;;;;4989381;28;20030;-69
2023/07/03 08:27:25;;;;;;;12.23;3.42;;;23.00;86.40;;;;;;4989050;28;20393;-71
2023/07/03 08:29:51;;;;;;;4.75;2.67;;;22.70;87.90;;;;;;4987758;28;20030;-70
2023/07/03 08:32:17;;;;;;;13.00;4.78;;;22.30;89.40;;;;;;4973683;28;20038;-70
2023/07/03 08:34:43;;;;;;;11.50;3.83;;;21.90;90.20;;;;;;4983767;28;20457;-69
2023/07/03 08:53:33;;;;;;;11.55;4.78;;;20.00;94.10;;;;;;4891640;28;3739121;-73
2023/07/03 08:56:16;;;;;;;7.13;4.25;;;20.10;93.70;;;;;;4993906;28;20026;-74
2023/07/03 08:58:43;;;;;;;15.00;5.45;;;20.20;93.30;;;;;;5000329;28;20091;-73
2023/07/03 09:01:24;;;;;;;9.93;2.95;;;20.20;93.50;;;;;;5030992;28;20025;-73
2023/07/03 09:04:21;;;;;;;9.38;4.35;;;20.10;93.30;;;;;;5014262;28;20399;-74
2023/07/03 09:06:55;;;;;;;12.30;3.40;;;20.60;92.80;;;;;;5015375;28;20508;-73
2023/07/03 09:09:30;;;;;;;8.40;3.97;;;21.70;91.50;;;;;;4994994;28;20037;-74
2023/07/03 09:12:01;;;;;;;7.53;3.67;;;24.50;89.00;;;;;;5010796;28;20427;-73
2023/07/03 09:14:32;;;;;;;9.48;3.58;;;26.90;83.40;;;;;;5044121;28;20040;-73
2023/07/03 09:16:59;;;;;;;7.97;3.47;;;28.70;81.20;;;;;;5017560;28;20442;-73
2023/07/03 09:19:27;;;;;;;6.72;3.45;;;28.80;79.00;;;;;;5014125;28;20110;-74
2023/07/03 09:21:59;;;;;;;6.80;2.67;;;29.40;75.40;;;;;;5030434;28;20155;-72
2023/07/03 09:24:30;;;;;;;7.05;3.47;;;29.00;75.50;;;;;;5011140;28;20037;-71
2023/07/03 09:27:22;;;;;;;10.30;3.92;;;28.20;75.00;;;;;;5023513;28;20395;-74
2023/07/03 09:29:49;;;;;;;11.02;2.58;;;27.70;75.30;;;;;;5013386;28;20095;-71
2023/07/03 09:32:30;;;;;;;6.63;3.25;;;28.60;74.40;;;;;;5013341;28;20040;-71
2023/07/03 09:35:02;;;;;;;11.95;4.32;;;30.30;74.20;;;;;;5011779;28;20029;-72
2023/07/03 09:37:28;;;;;;;7.38;3.83;;;29.70;73.20;;;;;;5026762;28;20033;-71
2023/07/03 09:39:54;;;;;;;8.43;4.20;;;29.70;72.60;;;;;;5010504;28;20022;-72
2023/07/03 09:42:22;;;;;;;8.25;4.07;;;27.90;75.00;;;;;;4994066;28;20060;-73
2023/07/03 09:44:49;;;;;;;8.02;3.70;;;26.40;78.10;;;;;;5010359;28;20379;-71
2023/07/03 09:47:26;;;;;;;8.95;3.80;;;25.10;78.80;;;;;;5010647;28;20132;-71
2023/07/03 09:49:52;;;;;;;10.70;4.57;;;24.20;79.50;;;;;;5010658;28;20109;-72
2023/07/03 09:52:18;;;;;;;5.85;4.70;;;23.20;83.00;;;;;;5007748;28;20017;-72
2023/07/03 09:54:46;;;;;;;12.18;4.28;;;22.50;84.50;;;;;;5009493;28;20479;-71
2023/07/03 10:00:46;;;;;;;5.30;2.88;;;22.10;87.90;;;;;;5013171;28;20060;-71
2023/07/03 10:03:32;;;;;;;7.13;3.85;;;21.50;88.40;;;;;;5007347;28;20038;-72
2023/07/03 10:06:11;;;;;;;9.55;3.67;;;21.40;88.60;;;;;;4994247;28;20114;-73
2023/07/03 10:08:49;;;;;;;11.60;3.93;;;22.30;88.40;;;;;;4996539;28;20036;-73
2023/07/03 10:11:21;;;;;;;10.43;3.78;;;22.00;88.40;;;;;;5008922;28;20046;-73
2023/07/03 10:13:51;;;;;;;19.13;4.53;;;22.50;87.80;;;;;;4983873;28;20473;-73
2023/07/03 10:16:21;;;;;;;8.98;4.18;;;23.20;85.50;;;;;;4978616;28;20034;-73
2023/07/03 10:18:51;;;;;;;6.60;2.75;;;24.40;82.10;;;;;;4990893;28;20034;-74
2023/07/03 10:22:11;;;;;;;6.85;2.42;;;25.10;81.50;;;;;;5003829;28;20554;-73
2023/07/03 10:24:46;;;;;;;8.75;2.58;;;26.70;79.30;;;;;;4996412;28;20030;-73
2023/07/03 10:27:13;;;;;;;7.53;3.17;;;26.80;75.30;;;;;;5005997;28;20173;-73
2023/07/03 10:29:49;;;;;;;8.30;2.83;;;27.40;74.60;;;;;;4972595;28;20388;-73
2023/07/03 10:32:43;;;;;;;8.77;3.55;;;27.90;74.30;;;;;;4985628;28;20069;-71
2023/07/03 10:35:58;;;;;;;5.30;2.30;;;28.70;73.90;;;;;;4959471;28;20047;-71
2023/07/03 10:39:20;;;;;;;5.45;3.35;;;29.30;73.50;;;;;;4947393;28;20082;-72
2023/07/03 10:41:56;;;;;;;8.40;3.88;;;28.00;73.30;;;;;;4945192;28;20062;-72
2023/07/03 10:44:32;;;;;;;5.75;2.75;;;27.40;73.40;;;;;;4952037;29;20065;-72
2023/07/03 10:47:00;;;;;;;12.93;3.30;;;26.50;73.10;;;;;;4941569;29;20517;-74
2023/07/03 10:49:34;;;;;;;17.48;3.55;;;24.90;74.40;;;;;;4951880;29;20031;-73
2023/07/03 10:52:15;;;;;;;14.18;2.40;;;24.30;77.10;;;;;;4952486;28;20035;-73
2023/07/03 10:55:01;;;;;;;6.55;4.03;;;23.80;77.80;;;;;;4955514;28;20130;-74
2023/07/03 10:57:37;;;;;;;8.60;4.03;;;23.40;80.20;;;;;;4965849;28;20141;-72
2023/07/03 11:00:11;;;;;;;8.65;2.63;;;22.80;79.70;;;;;;4977672;28;20042;-74
2023/07/03 11:02:47;;;;;;;9.88;3.15;;;22.50;80.50;;;;;;4971438;28;20038;-72
2023/07/03 11:05:42;;;;;;;5.32;2.40;;;22.50;81.50;;;;;;4988165;28;20073;-72
2023/07/03 11:08:22;;;;;;;7.75;3.67;;;22.40;82.70;;;;;;4966768;28;20105;-73
2023/07/03 11:11:11;;;;;;;9.90;3.58;;;23.50;82.00;;;;;;4938214;28;20035;-73
2023/07/03 11:13:51;;;;;;;8.70;3.10;;;24.10;80.20;;;;;;4971099;28;20062;-72
2023/07/03 11:16:18;;;;;;;9.27;3.13;;;24.20;78.90;;;;;;4953680;28;20088;-72
2023/07/03 11:18:53;;;;;;;4.97;2.28;;;23.90;78.20;;;;;;4990461;28;20033;-73
2023/07/03 11:21:24;;;;;;;7.03;2.30;;;24.00;79.00;;;;;;4990578;28;20113;-73
2023/07/03 11:24:15;;;;;;;4.68;1.92;;;23.70;78.70;;;;;;4970841;28;20129;-73
2023/07/03 11:26:49;;;;;;;9.20;3.15;;;24.10;80.00;;;;;;4979504;28;20686;-72
2023/07/03 11:29:15;;;;;;;9.60;2.75;;;24.50;77.80;;;;;;4983935;28;20057;-72
2023/07/03 11:31:45;;;;;;;5.40;2.15;;;24.90;77.40;;;;;;5012375;28;20026;-72
2023/07/03 11:34:17;;;;;;;11.25;2.45;;;24.90;76.70;;;;;;4994741;28;20105;-73
2023/07/03 11:36:46;;;;;;;10.00;2.92;;;25.10;75.60;;;;;;5010811;28;20391;-73
2023/07/03 11:39:19;;;;;;;8.73;2.78;;;25.40;76.00;;;;;;4994993;28;20030;-73
2023/07/03 11:41:55;;;;;;;8.35;2.28;;;25.70;77.30;;;;;;4994839;28;20065;-72
2023/07/03 11:44:27;;;;;;;16.55;2.58;;;25.80;74.40;;;;;;5011194;28;20113;-73
2023/07/03 11:46:55;;;;;;;4.03;2.22;;;25.50;74.70;;;;;;4992763;28;20048;-72
2023/07/03 11:49:29;;;;;;;7.35;3.10;;;25.90;73.90;;;;;;4978496;28;20416;-72
2023/07/03 11:52:01;;;;;;;6.75;3.03;;;25.90;75.10;;;;;;4979475;28;20034;-73
2023/07/03 11:54:28;;;;;;;4.47;2.08;;;26.20;74.50;;;;;;4983515;28;20049;-73
2023/07/03 11:56:57;;;;;;;7.53;1.88;;;26.10;75.40;;;;;;4976410;28;20034;-73
2023/07/03 11:59:27;;;;;;;7.45;3.10;;;25.60;75.10;;;;;;5011966;28;20022;-72
2023/07/03 12:02:15;;;;;;;6.57;2.80;;;25.10;74.30;;;;;;4994325;28;20113;-73
2023/07/03 12:04:46;;;;;;;5.85;2.60;;;24.40;74.60;;;;;;4993889;28;20044;-73
2023/07/03 12:07:18;;;;;;;5.30;2.17;;;23.70;76.00;;;;;;4975382;28;20042;-72
2023/07/03 12:09:45;;;;;;;3.53;1.90;;;23.20;74.90;;;;;;4993640;28;20030;-72
2023/07/03 12:12:19;;;;;;;5.65;3.25;;;22.90;75.40;;;;;;4994722;28;20022;-72
2023/07/03 12:14:56;;;;;;;5.55;2.97;;;23.30;76.00;;;;;;4994954;28;20041;-72
2023/07/03 12:17:33;;;;;;;3.53;2.10;;;23.90;76.90;;;;;;4997783;28;20041;-73
2023/07/03 12:20:20;;;;;;;7.65;2.97;;;24.20;77.00;;;;;;4993562;28;20037;-73
2023/07/03 12:22:51;;;;;;;7.82;3.60;;;23.80;76.70;;;;;;5011649;28;20111;-72
2023/07/03 12:25:21;;;;;;;4.18;2.22;;;23.50;77.00;;;;;;4993927;28;20026;-73
2023/07/03 12:27:48;;;;;;;8.55;2.58;;;23.20;77.40;;;;;;4993900;28;20044;-72
2023/07/03 12:30:29;;;;;;;8.57;2.78;;;23.00;78.10;;;;;;4994404;28;20034;-72
2023/07/03 12:32:57;;;;;;;4.82;3.20;;;22.70;78.60;;;;;;4978612;28;20464;-72
2023/07/03 12:35:31;;;;;;;7.13;3.30;;;22.50;80.00;;;;;;4993144;28;20437;-72
2023/07/03 12:38:07;;;;;;;8.55;2.70;;;22.40;80.90;;;;;;4993859;28;20088;-72
2023/07/03 12:40:40;;;;;;;6.18;2.15;;;22.60;80.10;;;;;;4994660;28;20069;-72
2023/07/03 12:43:08;;;;;;;10.07;2.08;;;23.20;78.70;;;;;;4994698;28;20034;-72
2023/07/03 12:45:34;;;;;;;6.80;2.58;;;23.90;79.20;;;;;;4992948;28;20017;-72
2023/07/03 12:48:08;;;;;;;6.82;1.95;;;24.20;77.80;;;;;;4993980;28;20385;-74
2023/07/03 12:50:58;;;;;;;17.67;3.45;;;24.20;76.50;;;;;;5003900;28;20040;-73
2023/07/03 12:53:29;;;;;;;7.07;3.08;;;24.30;76.60;;;;;;5011734;28;20495;-73
2023/07/03 12:56:01;;;;;;;8.70;3.30;;;24.30;76.70;;;;;;5009506;28;20026;-73
2023/07/03 12:58:27;;;;;;;9.48;3.38;;;24.00;76.80;;;;;;5011981;28;20030;-72
2023/07/03 13:01:00;;;;;;;8.82;3.67;;;23.80;78.10;;;;;;5002590;28;20041;-72
2023/07/03 13:03:26;;;;;;;290.35;56.78;;;24.00;79.00;;;;;;5010420;28;20038;-72
2023/07/03 13:05:52;;;;;;;5.18;2.88;;;24.30;78.90;;;;;;4992924;28;20025;-73
2023/07/03 13:08:18;;;;;;;6.95;3.10;;;24.30;77.60;;;;;;5012017;28;20073;-72
2023/07/03 13:11:01;;;;;;;15.65;4.35;;;24.40;79.30;;;;;;5012043;28;20115;-72
2023/07/03 13:13:27;;;;;;;12.55;3.72;;;24.50;77.90;;;;;;5010357;28;20030;-72